| Time | Avg. Air Temp | Dew Point | Avg. Rel Humidity | Avg. 2 Min Wind Speed | Max Gust Velocity | MGV Time | MGV Direction | Avg. Spot Wind Velocity |
|---|---|---|---|---|---|---|---|---|
| 2026-09-02 15:55:00 | 8° C | 6° C | 81% | 6 km/h | 13 km/h | 15:53:00 | NE | 8 km/h |
| 14:55:00 | 8° C | 7° C | 87% | 3 km/h | 8 km/h | 14:52:00 | SE | 3 km/h |
| 13:55:00 | 6° C | 2° C | 77% | 14 km/h | 24 km/h | 13:52:00 | SE | 14 km/h |
| 12:55:00 | 6° C | 2° C | 76% | 35 km/h | 53 km/h | 12:53:00 | SE | 36 km/h |
| 11:55:00 | 7° C | 4° C | 84% | 22 km/h | 33 km/h | 11:51:00 | E | 21 km/h |
| 10:55:00 | 8° C | 5° C | 81% | 15 km/h | 22 km/h | 10:51:00 | S | 16 km/h |
| 09:55:00 | 9° C | 4° C | 71% | 19 km/h | 26 km/h | 09:54:00 | S | 18 km/h |
| 08:55:00 | 8° C | 6° C | 82% | 13 km/h | 26 km/h | 08:55:00 | SE | 14 km/h |
| 07:55:00 | 7° C | 4° C | 81% | 21 km/h | 32 km/h | 07:51:00 | SE | 22 km/h |
| 06:55:00 | 7° C | 4° C | 79% | 20 km/h | 26 km/h | 06:53:00 | SE | 21 km/h |
| 05:55:00 | 7° C | 4° C | 82% | 24 km/h | 29 km/h | 05:53:00 | E | 21 km/h |
| 04:55:00 | 7° C | 4° C | 82% | 13 km/h | 26 km/h | 04:52:00 | SE | 15 km/h |
| 03:55:00 | 7° C | 4° C | 81% | 15 km/h | 20 km/h | 03:53:00 | S | 17 km/h |
| 02:55:00 | 7° C | 4° C | 84% | 19 km/h | 27 km/h | 02:55:00 | SE | 22 km/h |
| 01:55:00 | 6° C | 5° C | 89% | 21 km/h | 28 km/h | 01:53:00 | S | 21 km/h |
| 00:55:00 | 6° C | 5° C | 94% | 15 km/h | 31 km/h | 00:55:00 | SE | 22 km/h |
| 23:55:00 | 6° C | 5° C | 92% | 23 km/h | 32 km/h | 23:54:00 | SE | 21 km/h |
| 22:55:00 | 5° C | 5° C | 100% | 33 km/h | 46 km/h | 22:54:00 | SE | 30 km/h |
| 21:55:00 | 7° C | 5° C | 89% | 29 km/h | 52 km/h | 21:51:00 | SE | 37 km/h |
| 20:55:00 | 9° C | 3° C | 64% | 29 km/h | 38 km/h | 20:54:00 | SE | 21 km/h |
| 19:55:00 | 11° C | 2° C | 51% | 22 km/h | 25 km/h | 19:55:00 | S | 19 km/h |
| 18:55:00 | 12° C | 1° C | 47% | 26 km/h | 32 km/h | 18:55:00 | SE | 20 km/h |
| 17:55:00 | 12° C | 1° C | 45% | 19 km/h | 33 km/h | 17:52:00 | E | 20 km/h |
| 16:55:00 | 13° C | -0° C | 41% | 15 km/h | 21 km/h | 16:52:00 | SE | 16 km/h |
Subpeak Weather
| Time | Avg. Air Temp | Dew Point | Avg. Rel Humidity | Avg. 2 Min Wind Speed | Max Gust Velocity | MGV Time | MGV Direction | Avg. Spot Wind Velocity |
|---|---|---|---|---|---|---|---|---|
| 2026-09-02 15:55:00 | 8° C | 6° C | 81% | 6 km/h | 13 km/h | 15:53:00 | NE | 8 km/h |
| 15:50:00 | 9° C | 6° C | 77% | 12 km/h | 17 km/h | 15:46:00 | S | 10 km/h |
| 15:45:00 | 9° C | 7° C | 82% | 8 km/h | 21 km/h | 15:42:00 | S | 8 km/h |
| 15:40:00 | 9° C | 5° C | 81% | 10 km/h | 18 km/h | 15:38:00 | SW | 12 km/h |
| 15:35:00 | 9° C | 6° C | 81% | 10 km/h | 16 km/h | 15:34:00 | SW | 10 km/h |
| 15:30:00 | 10° C | 7° C | 82% | 5 km/h | 12 km/h | 15:29:00 | NW | 6 km/h |
| 15:25:00 | 9° C | 6° C | 77% | 8 km/h | 12 km/h | 15:25:00 | S | 9 km/h |
| 15:20:00 | 8° C | 5° C | 79% | 3 km/h | 11 km/h | 15:20:00 | SW | 3 km/h |
| 15:15:00 | 8° C | 6° C | 80% | 6 km/h | 12 km/h | 15:12:00 | S | 6 km/h |
| 15:10:00 | 8° C | 5° C | 82% | 4 km/h | 12 km/h | 15:08:00 | SE | 5 km/h |
| 15:05:00 | 7° C | 5° C | 86% | 7 km/h | 17 km/h | 15:02:00 | SE | 7 km/h |
| 15:00:00 | 8° C | 5° C | 87% | 6 km/h | 12 km/h | 14:58:00 | SE | 8 km/h |
| 14:55:00 | 8° C | 7° C | 87% | 3 km/h | 8 km/h | 14:52:00 | SE | 3 km/h |




